createdAt,value
2019-02-25T00:01:15.408Z,107.37
2019-02-25T00:03:49.227Z,70.62
2019-02-25T00:06:24.013Z,61.20
2019-02-25T00:08:58.573Z,58.53
2019-02-25T00:11:32.674Z,60.28
2019-02-25T00:14:06.635Z,60.23
2019-02-25T00:16:59.916Z,68.50
2019-02-25T00:19:33.739Z,68.97
2019-02-25T00:22:07.679Z,64.42
2019-02-25T00:24:41.408Z,73.37
2019-02-25T00:27:16.521Z,69.37
2019-02-25T00:29:50.169Z,73.93
2019-02-25T00:32:23.879Z,69.10
2019-02-25T00:34:57.865Z,76.30
2019-02-25T00:37:31.464Z,58.23
2019-02-25T00:40:05.809Z,79.97
2019-02-25T00:42:39.641Z,65.62
2019-02-25T00:45:15.607Z,57.57
2019-02-25T00:47:49.831Z,68.33
2019-02-25T00:50:24.607Z,72.47
2019-02-25T00:52:58.454Z,66.30
2019-02-25T00:55:33.313Z,89.52
2019-02-25T00:58:07.209Z,67.70
2019-02-25T01:00:41.436Z,70.30
2019-02-25T01:03:17.489Z,83.62
2019-02-25T01:05:52.226Z,85.13
2019-02-25T01:08:26.135Z,66.93
2019-02-25T01:11:00.010Z,70.10
2019-02-25T01:13:34.769Z,76.53
2019-02-25T01:16:08.940Z,73.10
2019-02-25T01:18:42.749Z,78.40
2019-02-25T01:21:17.099Z,87.83
2019-02-25T01:23:51.120Z,84.00
2019-02-25T01:26:24.932Z,77.63
2019-02-25T01:28:59.156Z,100.73
2019-02-25T01:31:33.687Z,89.83
2019-02-25T01:34:07.544Z,81.60
2019-02-25T01:36:42.468Z,82.13
2019-02-25T01:39:16.259Z,70.73
2019-02-25T01:41:50.200Z,80.07
2019-02-25T01:44:24.246Z,73.40
2019-02-25T01:47:00.059Z,71.07
2019-02-25T01:49:34.402Z,69.53
2019-02-25T01:52:08.322Z,69.30
2019-02-25T01:54:42.384Z,76.17
2019-02-25T01:57:16.641Z,72.20
2019-02-25T01:59:50.537Z,68.70
2019-02-25T02:02:24.584Z,80.80
2019-02-25T02:04:58.173Z,77.50
2019-02-25T02:07:32.048Z,66.07
2019-02-25T02:10:06.311Z,78.40
2019-02-25T02:12:39.988Z,84.07
2019-02-25T02:15:18.950Z,77.10
2019-02-25T02:17:52.926Z,76.70
2019-02-25T02:20:26.624Z,66.53
2019-02-25T02:23:00.500Z,73.67
2019-02-25T02:28:11.669Z,81.87
2019-02-25T02:30:45.306Z,85.13
2019-02-25T02:33:20.239Z,74.22
2019-02-25T02:35:53.854Z,74.20
2019-02-25T02:38:29.206Z,65.00
2019-02-25T02:41:03.649Z,81.00
2019-02-25T02:43:37.340Z,73.63
2019-02-25T02:46:24.494Z,74.87
2019-02-25T02:49:04.845Z,74.80
2019-02-25T02:51:38.215Z,72.40
2019-02-25T02:54:11.948Z,69.70
2019-02-25T02:56:46.960Z,64.23
2019-02-25T02:59:20.547Z,71.07
2019-02-25T03:01:54.642Z,72.93
2019-02-25T03:04:28.395Z,64.23
2019-02-25T03:07:03.439Z,63.37
2019-02-25T03:09:36.635Z,54.53
2019-02-25T03:12:10.344Z,64.37
2019-02-25T03:14:44.058Z,65.50
2019-02-25T03:17:17.701Z,69.17
2019-02-25T03:19:51.325Z,63.33
2019-02-25T03:22:25.020Z,65.10
2019-02-25T03:24:59.067Z,60.53
2019-02-25T03:27:33.269Z,50.73
2019-02-25T03:30:14.580Z,52.10
2019-02-25T03:32:48.395Z,59.50
2019-02-25T03:35:22.023Z,69.30
2019-02-25T03:37:55.591Z,56.70
2019-02-25T03:40:30.297Z,58.33
2019-02-25T03:43:04.185Z,57.62
2019-02-25T03:45:38.073Z,51.60
2019-02-25T03:48:11.726Z,51.47
2019-02-25T03:50:45.383Z,46.43
2019-02-25T03:53:20.428Z,45.57
2019-02-25T03:55:55.502Z,50.17
2019-02-25T03:58:29.213Z,41.27
2019-02-25T04:01:02.887Z,41.13
2019-02-25T04:03:36.754Z,47.53
2019-02-25T04:06:10.638Z,47.90
2019-02-25T04:08:44.583Z,46.90
2019-02-25T04:11:18.389Z,39.30
2019-02-25T04:13:52.025Z,45.87
2019-02-25T04:16:27.247Z,42.00
2019-02-25T04:19:02.276Z,47.10
2019-02-25T04:21:36.122Z,44.83
2019-02-25T04:24:10.092Z,46.64
2019-02-25T04:26:43.765Z,53.85
2019-02-25T04:29:17.376Z,48.50
2019-02-25T04:31:51.766Z,49.23
2019-02-25T04:34:25.428Z,46.03
2019-02-25T04:37:00.528Z,42.80
2019-02-25T04:39:34.862Z,55.15
2019-02-25T04:42:08.473Z,69.43
2019-02-25T04:44:42.190Z,54.58
2019-02-25T04:47:16.515Z,40.97
2019-02-25T04:49:50.482Z,38.15
2019-02-25T04:52:24.230Z,39.80
2019-02-25T04:54:57.944Z,53.90
2019-02-25T04:57:31.514Z,42.07
2019-02-25T05:00:06.686Z,51.20
2019-02-25T05:02:40.413Z,39.40
2019-02-25T05:05:14.081Z,40.97
2019-02-25T05:07:48.124Z,41.30
2019-02-25T05:10:22.015Z,43.10
2019-02-25T05:12:55.738Z,43.67
2019-02-25T05:15:29.851Z,47.90
2019-02-25T05:18:03.910Z,40.30
2019-02-25T05:20:37.340Z,46.37
2019-02-25T05:23:11.161Z,38.83
2019-02-25T05:25:44.658Z,38.63
2019-02-25T05:28:20.085Z,40.70
2019-02-25T05:30:54.037Z,34.80
2019-02-25T05:33:27.677Z,39.33
2019-02-25T05:36:01.829Z,42.43
2019-02-25T05:38:35.516Z,36.40
2019-02-25T05:41:09.782Z,31.07
2019-02-25T05:43:43.507Z,28.05
2019-02-25T05:46:17.387Z,30.15
2019-02-25T05:48:51.250Z,36.33
2019-02-25T05:51:24.862Z,31.97
2019-02-25T05:53:59.030Z,38.87
2019-02-25T05:56:32.714Z,39.57
2019-02-25T05:59:06.405Z,36.60
2019-02-25T06:01:40.069Z,31.47
2019-02-25T06:04:13.862Z,34.97
2019-02-25T06:06:49.154Z,29.00
2019-02-25T06:09:23.288Z,33.10
2019-02-25T06:11:58.743Z,43.93
2019-02-25T06:14:32.490Z,38.00
2019-02-25T06:17:06.198Z,31.23
2019-02-25T06:19:39.806Z,33.33
2019-02-25T06:22:14.934Z,32.87
2019-02-25T06:24:48.877Z,25.55
2019-02-25T06:27:43.413Z,28.07
2019-02-25T06:30:24.688Z,28.37
2019-02-25T06:32:58.493Z,31.63
2019-02-25T06:35:32.563Z,35.43
2019-02-25T06:38:06.469Z,23.90
2019-02-25T06:40:40.336Z,22.37
2019-02-25T06:43:13.922Z,27.10
2019-02-25T06:45:47.303Z,34.80
2019-02-25T06:48:21.258Z,36.03
2019-02-25T06:50:54.961Z,28.17
2019-02-25T06:53:28.830Z,25.43
2019-02-25T06:56:02.343Z,28.98
2019-02-25T06:58:36.491Z,31.07
2019-02-25T07:01:11.286Z,29.27
2019-02-25T07:03:45.984Z,30.40
2019-02-25T07:06:21.028Z,23.53
2019-02-25T07:08:54.807Z,40.83
2019-02-25T07:11:28.728Z,29.40
2019-02-25T07:14:03.711Z,32.88
2019-02-25T07:16:38.175Z,30.83
2019-02-25T07:19:11.486Z,33.70
2019-02-25T07:21:45.353Z,30.03
2019-02-25T07:24:19.034Z,29.97
2019-02-25T07:26:52.683Z,29.20
2019-02-25T07:29:25.978Z,29.20
2019-02-25T07:32:01.529Z,32.67
2019-02-25T07:34:35.397Z,36.77
2019-02-25T07:37:09.779Z,25.08
2019-02-25T07:39:43.341Z,34.63
2019-02-25T07:42:16.948Z,34.78
2019-02-25T07:44:50.549Z,27.50
2019-02-25T07:47:25.668Z,25.37
2019-02-25T07:49:59.565Z,36.00
2019-02-25T07:52:33.349Z,27.50
2019-02-25T07:55:08.803Z,35.03
2019-02-25T07:57:42.437Z,32.07
2019-02-25T08:00:17.935Z,28.73
2019-02-25T08:02:51.502Z,25.97
2019-02-25T08:05:25.904Z,25.23
2019-02-25T08:07:59.426Z,31.30
2019-02-25T08:10:33.402Z,31.60
2019-02-25T08:13:07.733Z,28.17
2019-02-25T08:15:41.293Z,24.17
2019-02-25T08:18:15.124Z,24.74
2019-02-25T08:21:10.242Z,33.93
2019-02-25T08:23:43.908Z,28.23
2019-02-25T08:26:17.749Z,32.10
2019-02-25T08:28:51.636Z,31.00
2019-02-25T08:31:25.587Z,25.57
2019-02-25T08:33:59.484Z,27.90
2019-02-25T08:37:04.758Z,22.07
2019-02-25T08:39:38.004Z,28.77
2019-02-25T08:42:12.590Z,31.23
2019-02-25T08:44:46.646Z,34.17
2019-02-25T08:47:20.398Z,43.97
2019-02-25T08:49:54.322Z,30.00
2019-02-25T08:52:27.913Z,29.18
2019-02-25T08:55:23.431Z,26.63
2019-02-25T08:57:57.539Z,19.92
2019-02-25T09:00:31.614Z,28.67
2019-02-25T09:03:05.681Z,28.07
2019-02-25T09:05:39.669Z,24.83
2019-02-25T09:08:13.935Z,27.83
2019-02-25T09:10:48.823Z,33.85
2019-02-25T09:13:23.862Z,31.77
2019-02-25T09:15:58.415Z,43.03
2019-02-25T09:18:32.536Z,27.37
2019-02-25T09:21:08.045Z,36.30
2019-02-25T09:23:41.462Z,33.28
2019-02-25T09:26:15.275Z,37.70
2019-02-25T09:28:49.097Z,43.87
2019-02-25T09:31:23.406Z,37.37
2019-02-25T09:33:57.071Z,47.33
2019-02-25T09:36:31.085Z,35.23
2019-02-25T09:39:05.190Z,46.10
2019-02-25T09:41:39.205Z,39.90
2019-02-25T09:44:14.458Z,44.83
2019-02-25T09:46:48.291Z,50.17
2019-02-25T09:49:22.434Z,43.63
2019-02-25T09:52:02.838Z,42.97
2019-02-25T09:54:37.516Z,50.70
2019-02-25T09:57:12.192Z,44.08
2019-02-25T10:00:23.790Z,50.23
2019-02-25T10:02:57.879Z,48.27
2019-02-25T10:05:32.155Z,61.43
2019-02-25T10:08:06.363Z,57.10
2019-02-25T10:10:41.993Z,58.50
2019-02-25T10:13:16.671Z,64.43
2019-02-25T10:15:50.936Z,54.83
2019-02-25T10:18:29.058Z,59.07
2019-02-25T10:21:09.429Z,59.90
2019-02-25T10:23:46.073Z,60.27
2019-02-25T10:26:25.530Z,64.27
2019-02-25T10:29:01.350Z,63.00
2019-02-25T10:31:38.124Z,60.87
2019-02-25T10:34:17.960Z,67.37
2019-02-25T10:36:53.011Z,79.33
2019-02-25T10:39:28.049Z,61.45
2019-02-25T10:42:22.987Z,64.93
2019-02-25T10:44:58.790Z,62.90
2019-02-25T10:47:36.419Z,70.45
2019-02-25T10:50:13.806Z,68.77
2019-02-25T10:53:03.479Z,73.90
2019-02-25T10:55:48.817Z,64.43
2019-02-25T10:58:24.737Z,67.40
2019-02-25T11:01:02.313Z,69.77
2019-02-25T11:03:36.863Z,70.10
2019-02-25T11:06:26.862Z,75.33
2019-02-25T11:08:59.023Z,70.27
2019-02-25T11:11:34.454Z,77.87
2019-02-25T11:14:11.020Z,74.67
2019-02-25T11:16:48.056Z,70.93
2019-02-25T11:19:28.641Z,70.73
2019-02-25T11:22:00.657Z,75.53
2019-02-25T11:24:35.853Z,67.37
2019-02-25T11:27:14.206Z,76.23
2019-02-25T11:29:48.801Z,91.60
2019-02-25T11:32:23.694Z,81.10
2019-02-25T11:35:01.474Z,80.67
2019-02-25T11:37:39.500Z,85.13
2019-02-25T11:40:28.945Z,77.80
2019-02-25T11:43:13.060Z,77.60
2019-02-25T11:45:47.385Z,79.80
2019-02-25T11:48:24.511Z,90.47
2019-02-25T11:51:01.066Z,91.87
2019-02-25T11:53:40.001Z,102.47
2019-02-25T11:56:15.571Z,88.40
2019-02-25T11:58:52.264Z,87.67
2019-02-25T12:01:26.631Z,94.13
2019-02-25T12:04:02.267Z,100.97
2019-02-25T12:06:42.992Z,96.97
2019-02-25T12:09:20.753Z,100.37
2019-02-25T12:11:58.475Z,109.48
2019-02-25T12:14:35.819Z,98.07
2019-02-25T12:17:11.072Z,107.00
2019-02-25T12:19:46.030Z,99.37
2019-02-25T12:22:22.327Z,101.43
2019-02-25T12:24:56.987Z,112.20
2019-02-25T12:27:31.839Z,102.57
2019-02-25T12:30:07.493Z,101.72
2019-02-25T12:32:44.352Z,103.07
2019-02-25T12:35:26.610Z,121.47
2019-02-25T12:38:03.095Z,119.53
2019-02-25T12:40:38.367Z,113.73
2019-02-25T12:43:13.381Z,111.83
2019-02-25T12:45:48.782Z,108.67
2019-02-25T12:48:23.381Z,112.37
2019-02-25T12:50:59.473Z,120.33
2019-02-25T12:53:34.374Z,125.18
2019-02-25T12:56:14.656Z,126.65
2019-02-25T12:58:49.420Z,135.07
2019-02-25T13:01:24.830Z,133.77
2019-02-25T13:04:02.235Z,145.03
2019-02-25T13:06:38.823Z,141.17
2019-02-25T13:09:15.814Z,138.27
2019-02-25T13:11:51.184Z,153.33
2019-02-25T13:14:25.497Z,155.03
2019-02-25T13:17:04.156Z,146.87
2019-02-25T13:19:41.754Z,175.03
2019-02-25T13:22:19.480Z,152.93
2019-02-25T13:24:55.056Z,164.27
2019-02-25T13:27:32.157Z,170.45
2019-02-25T13:30:08.710Z,192.67
2019-02-25T13:32:46.402Z,185.53
2019-02-25T13:35:20.956Z,184.60
2019-02-25T13:37:56.096Z,203.50
2019-02-25T13:40:30.504Z,230.62
2019-02-25T13:43:05.332Z,211.62
2019-02-25T13:45:39.763Z,233.90
2019-02-25T13:48:14.138Z,205.80
2019-02-25T13:50:48.001Z,241.30
2019-02-25T13:53:22.606Z,222.63
2019-02-25T13:55:58.601Z,235.48
2019-02-25T13:58:32.506Z,216.63
2019-02-25T14:01:06.622Z,221.90
2019-02-25T14:03:40.678Z,215.80
2019-02-25T14:06:17.743Z,222.57
2019-02-25T14:08:51.603Z,200.20
2019-02-25T14:11:25.504Z,222.52
2019-02-25T14:14:00.183Z,200.17
2019-02-25T14:16:36.322Z,203.93
2019-02-25T14:19:10.291Z,213.93
2019-02-25T14:21:44.373Z,208.73
2019-02-25T14:24:20.801Z,197.60
2019-02-25T14:26:55.072Z,192.57
2019-02-25T14:29:28.901Z,190.47
2019-02-25T14:32:03.542Z,189.70
2019-02-25T14:34:37.412Z,201.15
2019-02-25T14:37:10.759Z,191.93
2019-02-25T14:39:49.409Z,196.90
2019-02-25T14:42:44.497Z,180.50
2019-02-25T14:45:21.371Z,185.40
2019-02-25T14:47:57.510Z,203.93
2019-02-25T14:50:28.300Z,171.27
2019-02-25T14:53:03.919Z,221.57
2019-02-25T14:55:40.778Z,194.90
2019-02-25T14:58:15.053Z,227.50
2019-02-25T15:00:49.737Z,193.90
2019-02-25T15:03:26.944Z,193.43
2019-02-25T15:06:00.771Z,183.30
2019-02-25T15:08:34.687Z,193.17
2019-02-25T15:11:09.244Z,198.20
2019-02-25T15:13:44.930Z,192.67
2019-02-25T15:16:18.816Z,245.00
2019-02-25T15:18:52.800Z,237.33
2019-02-25T15:21:26.802Z,220.67
2019-02-25T15:24:04.126Z,208.68
2019-02-25T15:26:42.826Z,217.03
2019-02-25T15:29:13.979Z,232.03
2019-02-25T15:31:50.469Z,234.13
2019-02-25T15:34:24.091Z,187.57
2019-02-25T15:37:00.721Z,177.10
2019-02-25T15:39:34.459Z,183.23
2019-02-25T15:42:08.673Z,203.80
2019-02-25T15:44:44.531Z,192.20
2019-02-25T15:47:17.816Z,201.77
2019-02-25T15:49:55.361Z,151.90
2019-02-25T15:52:30.836Z,179.87
2019-02-25T15:55:03.977Z,186.10
2019-02-25T15:57:39.963Z,168.47
2019-02-25T16:00:23.269Z,141.33
2019-02-25T16:03:03.838Z,119.43
2019-02-25T16:05:38.761Z,106.10
2019-02-25T16:08:19.033Z,97.67
2019-02-25T16:10:55.645Z,90.43
2019-02-25T16:13:26.806Z,86.83
2019-02-25T16:16:01.113Z,93.77
2019-02-25T16:18:35.008Z,83.13
2019-02-25T16:21:11.231Z,84.63
2019-02-25T16:23:45.386Z,83.17
2019-02-25T16:26:20.089Z,88.47
2019-02-25T16:28:55.168Z,81.53
2019-02-25T16:31:30.909Z,89.53
2019-02-25T16:34:04.329Z,78.20
2019-02-25T16:36:37.917Z,101.27
2019-02-25T16:39:12.363Z,101.20
2019-02-25T16:41:47.447Z,101.03
2019-02-25T16:44:21.415Z,95.93
2019-02-25T16:47:15.997Z,96.03
2019-02-25T16:49:50.328Z,98.93
2019-02-25T16:52:24.517Z,106.90
2019-02-25T16:55:20.083Z,112.00
2019-02-25T16:57:53.827Z,117.63
2019-02-25T17:00:29.962Z,125.40
2019-02-25T17:03:05.997Z,130.37
2019-02-25T17:05:40.285Z,133.87
2019-02-25T17:08:34.446Z,148.40
2019-02-25T17:11:10.508Z,146.13
2019-02-25T17:13:43.717Z,151.35
2019-02-25T17:16:18.416Z,155.40
2019-02-25T17:18:51.888Z,152.20
2019-02-25T17:21:26.597Z,153.50
2019-02-25T17:24:01.175Z,156.85
2019-02-25T17:26:35.233Z,148.90
2019-02-25T17:29:09.079Z,151.57
2019-02-25T17:31:45.032Z,148.60
2019-02-25T17:34:19.171Z,172.60
2019-02-25T17:36:54.613Z,148.53
2019-02-25T17:39:29.463Z,171.50
2019-02-25T17:42:06.113Z,184.90
2019-02-25T17:44:39.706Z,164.87
2019-02-25T17:47:24.092Z,167.67
2019-02-25T17:49:51.223Z,163.80
2019-02-25T17:52:25.025Z,172.87
2019-02-25T17:55:01.502Z,152.87
2019-02-25T17:57:55.982Z,138.73
2019-02-25T18:00:34.344Z,145.70
2019-02-25T18:03:08.230Z,149.47
2019-02-25T18:05:43.214Z,141.65
2019-02-25T18:08:17.549Z,134.80
2019-02-25T18:10:52.218Z,136.80
2019-02-25T18:13:28.127Z,132.15
2019-02-25T18:16:05.296Z,137.57
2019-02-25T18:18:41.205Z,136.67
2019-02-25T18:21:14.076Z,134.80
2019-02-25T18:23:49.415Z,136.30
2019-02-25T18:26:23.287Z,127.27
2019-02-25T18:28:57.982Z,146.43
2019-02-25T18:31:32.564Z,139.35
2019-02-25T18:34:06.970Z,148.63
2019-02-25T18:36:41.843Z,201.77
2019-02-25T18:39:16.747Z,216.43
2019-02-25T18:41:52.591Z,221.90
2019-02-25T18:44:27.826Z,240.47
2019-02-25T18:47:02.563Z,294.37
2019-02-25T18:49:37.118Z,309.40
2019-02-25T18:52:10.979Z,315.83
2019-02-25T18:54:47.409Z,332.47
2019-02-25T18:57:41.711Z,333.73
2019-02-25T19:00:33.461Z,364.95
2019-02-25T19:03:07.759Z,375.30
2019-02-25T19:05:45.319Z,369.82
2019-02-25T19:08:24.109Z,393.83
2019-02-25T19:10:57.844Z,423.53
2019-02-25T19:13:32.075Z,422.87
2019-02-25T19:16:06.193Z,415.20
2019-02-25T19:18:41.392Z,435.40
2019-02-25T19:21:16.449Z,451.07
2019-02-25T19:23:51.838Z,494.37
2019-02-25T19:26:25.959Z,483.45
2019-02-25T19:29:01.630Z,480.27
2019-02-25T19:31:35.771Z,487.17
2019-02-25T19:34:10.531Z,491.03
2019-02-25T19:36:44.410Z,488.10
2019-02-25T19:39:19.781Z,507.00
2019-02-25T19:41:53.820Z,502.50
2019-02-25T19:44:29.797Z,517.45
2019-02-25T19:47:23.780Z,512.25
2019-02-25T19:49:59.134Z,504.70
2019-02-25T19:52:34.712Z,506.57
2019-02-25T19:55:13.051Z,504.17
2019-02-25T19:57:47.278Z,527.75
2019-02-25T20:00:27.514Z,574.63
2019-02-25T20:03:05.905Z,570.55
2019-02-25T20:05:41.183Z,587.70
2019-02-25T20:08:12.414Z,587.27
2019-02-25T20:10:46.024Z,578.33
2019-02-25T20:13:22.018Z,583.93
2019-02-25T20:15:55.713Z,595.40
2019-02-25T20:18:30.741Z,589.97
2019-02-25T20:21:05.758Z,591.05
2019-02-25T20:23:39.276Z,617.47
2019-02-25T20:26:13.459Z,599.50
2019-02-25T20:28:48.742Z,613.05
2019-02-25T20:31:22.930Z,621.53
2019-02-25T20:33:57.374Z,601.83
2019-02-25T20:36:32.693Z,593.47
2019-02-25T20:39:07.034Z,605.40
2019-02-25T20:41:40.777Z,604.90
2019-02-25T20:44:15.920Z,603.57
2019-02-25T20:46:52.656Z,587.87
2019-02-25T20:49:26.385Z,588.43
2019-02-25T20:52:01.163Z,601.97
2019-02-25T20:54:37.981Z,601.08
2019-02-25T20:57:10.095Z,585.33
2019-02-25T20:59:44.220Z,588.03
2019-02-25T21:02:18.853Z,595.67
2019-02-25T21:04:52.821Z,595.13
2019-02-25T21:07:27.600Z,585.60
2019-02-25T21:10:03.387Z,605.67
2019-02-25T21:12:36.430Z,617.83
2019-02-25T21:15:20.862Z,616.20
2019-02-25T21:17:54.997Z,617.70
2019-02-25T21:20:31.251Z,620.00
2019-02-25T21:23:05.941Z,635.47
2019-02-25T21:25:38.627Z,635.50
2019-02-25T21:28:12.588Z,624.23
2019-02-25T21:30:48.004Z,630.53
2019-02-25T21:33:24.946Z,628.87
2019-02-25T21:35:57.618Z,642.43
2019-02-25T21:38:32.515Z,637.87
2019-02-25T21:41:07.442Z,635.86
2019-02-25T21:43:43.343Z,644.43
2019-02-25T21:46:17.825Z,617.57
2019-02-25T21:48:54.864Z,635.47
2019-02-25T21:51:30.333Z,624.77
2019-02-25T21:54:02.331Z,646.03
2019-02-25T21:56:36.701Z,642.97
2019-02-25T21:59:10.517Z,633.07
2019-02-25T22:02:04.103Z,635.58
2019-02-25T22:04:40.399Z,646.53
2019-02-25T22:07:16.914Z,641.87
2019-02-25T22:09:47.139Z,664.87
2019-02-25T22:12:20.777Z,650.07
2019-02-25T22:14:54.589Z,640.65
2019-02-25T22:17:28.183Z,626.27
2019-02-25T22:20:04.815Z,631.30
2019-02-25T22:22:37.725Z,627.85
2019-02-25T22:25:23.064Z,623.33
2019-02-25T22:27:58.907Z,613.47
2019-02-25T22:30:32.024Z,593.37
2019-02-25T22:33:07.876Z,585.17
2019-02-25T22:35:42.487Z,584.17
2019-02-25T22:38:17.853Z,608.07
2019-02-25T22:40:53.594Z,593.35
2019-02-25T22:43:27.234Z,621.17
2019-02-25T22:46:02.591Z,637.50
2019-02-25T22:48:37.464Z,631.33
2019-02-25T22:51:10.851Z,609.52
2019-02-25T22:53:44.552Z,611.77
2019-02-25T22:56:18.403Z,605.87
2019-02-25T22:58:53.969Z,581.63
2019-02-25T23:01:27.537Z,578.53
2019-02-25T23:04:01.616Z,569.10
2019-02-25T23:06:39.581Z,560.40
2019-02-25T23:09:14.112Z,561.97
2019-02-25T23:11:46.081Z,559.35
2019-02-25T23:14:20.519Z,564.43
2019-02-25T23:16:55.679Z,544.67
2019-02-25T23:19:29.766Z,535.70
2019-02-25T23:22:03.506Z,540.50
2019-02-25T23:24:39.820Z,558.07
2019-02-25T23:27:13.050Z,538.25
2019-02-25T23:29:48.315Z,542.75
2019-02-25T23:32:21.755Z,542.67
2019-02-25T23:34:57.044Z,547.53
2019-02-25T23:37:30.632Z,558.60
2019-02-25T23:40:09.699Z,561.25
2019-02-25T23:42:44.338Z,573.80
2019-02-25T23:45:20.453Z,583.13
2019-02-25T23:48:01.837Z,582.83
2019-02-25T23:50:36.172Z,602.73
2019-02-25T23:53:10.018Z,599.37
2019-02-25T23:55:47.140Z,605.87
2019-02-25T23:58:20.197Z,611.47
